Time;durP1;ratioP1;P1;durP2;ratioP2;P2;SDS_P1;SDS_P2;PMS_P1;PMS_P2;Temp;Humidity;BMP_temperature;BMP_pressure;BME280_temperature;BME280_humidity;BME280_pressure;Samples;Min_cycle;Max_cycle;Signal;HPM_P1;HPM_P2
2022/11/04 00:02:21;;;;;;;9.40;5.07;;;;;;;9.08;100.00;95293.94;4789572;28;20029;-74
2022/11/04 00:04:46;;;;;;;8.80;5.30;;;;;;;9.08;100.00;95314.09;4831116;28;20030;-74
2022/11/04 00:09:56;;;;;;;11.60;5.40;;;;;;;9.04;100.00;95316.25;4830458;28;20037;-74
2022/11/04 00:12:24;;;;;;;8.70;5.50;;;;;;;8.98;100.00;95322.19;4816192;28;20514;-74
2022/11/04 00:14:50;;;;;;;9.40;5.87;;;;;;;8.96;100.00;95316.31;4846850;28;20060;-74
2022/11/04 00:17:20;;;;;;;10.90;6.53;;;;;;;8.96;100.00;95314.50;4843674;28;21349;-74
2022/11/04 00:33:24;;;;;;;10.10;6.63;;;;;;;8.91;100.00;95313.34;4910674;28;20077;-74
2022/11/04 00:33:47;;;;;;;11.10;6.80;;;;;;;8.89;100.00;95305.69;4926464;28;20034;-74
2022/11/04 00:36:13;;;;;;;13.10;6.60;;;;;;;8.91;100.00;95302.88;4932295;28;20034;-74
2022/11/04 00:38:39;;;;;;;10.63;6.50;;;;;;;8.87;100.00;95302.41;4961419;28;20048;-74
2022/11/04 00:41:24;;;;;;;11.07;7.27;;;;;;;8.81;100.00;95307.50;4949018;28;20150;-74
2022/11/04 00:43:54;;;;;;;12.30;7.73;;;;;;;8.81;100.00;95308.31;4991695;28;20060;-74
2022/11/04 00:46:20;;;;;;;13.90;8.03;;;;;;;8.82;100.00;95303.91;4988805;28;20037;-75
2022/11/04 00:48:45;;;;;;;12.63;7.43;;;;;;;8.80;100.00;95296.22;4990950;28;20044;-74
2022/11/04 00:51:11;;;;;;;11.33;7.93;;;;;;;8.86;100.00;95294.72;5007821;28;20080;-74
2022/11/04 00:53:37;;;;;;;13.20;8.30;;;;;;;8.80;100.00;95300.66;4991154;28;20029;-74
2022/11/04 00:56:02;;;;;;;14.27;8.23;;;;;;;8.76;100.00;95304.59;5004633;28;20135;-74
2022/11/04 00:58:28;;;;;;;10.93;7.87;;;;;;;8.75;100.00;95303.75;5021417;28;20034;-74
2022/11/04 01:00:54;;;;;;;11.83;7.73;;;;;;;8.76;100.00;95318.53;5018970;28;20032;-74
2022/11/04 01:03:19;;;;;;;12.13;7.03;;;;;;;8.69;100.00;95321.00;4992410;28;21082;-74
2022/11/04 01:05:45;;;;;;;10.13;6.73;;;;;;;8.73;100.00;95326.72;4981576;28;20479;-74
2022/11/04 01:08:10;;;;;;;12.67;7.23;;;;;;;8.71;100.00;95334.75;4953151;28;20037;-74
2022/11/04 01:10:43;;;;;;;10.40;7.00;;;;;;;8.71;100.00;95341.78;4964837;28;20112;-74
2022/11/04 01:13:12;;;;;;;11.98;7.07;;;;;;;8.71;100.00;95332.13;4952300;28;20048;-74
2022/11/04 01:15:38;;;;;;;9.50;6.37;;;;;;;8.68;100.00;95339.50;4954964;28;20076;-74
2022/11/04 01:18:05;;;;;;;10.20;6.33;;;;;;;8.69;100.00;95349.03;4951011;28;20140;-74
2022/11/04 01:20:32;;;;;;;12.63;6.47;;;;;;;8.67;100.00;95349.19;4950576;28;20626;-75
2022/11/04 01:22:58;;;;;;;10.93;5.60;;;;;;;8.65;100.00;95345.94;4954372;28;20038;-74
2022/11/04 01:25:24;;;;;;;8.80;5.23;;;;;;;8.65;100.00;95345.09;4951910;28;20037;-74
2022/11/04 01:27:50;;;;;;;9.63;6.03;;;;;;;8.63;100.00;95350.50;4953045;28;20096;-75
2022/11/04 01:30:16;;;;;;;8.37;4.67;;;;;;;8.58;100.00;95350.19;4951693;28;20116;-74
2022/11/04 01:32:41;;;;;;;7.67;5.17;;;;;;;8.61;100.00;95354.28;4983767;28;20038;-74
2022/11/04 01:35:08;;;;;;;9.60;4.63;;;;;;;8.63;100.00;95347.06;4988681;28;20026;-74
2022/11/04 01:37:33;;;;;;;9.23;4.70;;;;;;;8.60;100.00;95352.66;5013537;28;20053;-74
2022/11/04 01:39:59;;;;;;;11.77;6.07;;;;;;;8.60;100.00;95352.66;5016368;28;20065;-74
2022/11/04 01:42:25;;;;;;;6.70;3.47;;;;;;;8.65;100.00;95351.16;5015082;28;20656;-74
2022/11/04 01:44:59;;;;;;;7.87;3.90;;;;;;;8.63;100.00;95350.50;5033229;28;20022;-74
2022/11/04 01:47:34;;;;;;;8.97;3.57;;;;;;;8.65;100.00;95348.53;5030435;28;20105;-74
2022/11/04 01:50:07;;;;;;;5.70;2.87;;;;;;;8.67;100.00;95358.84;5017344;28;20037;-73
2022/11/04 01:52:41;;;;;;;5.78;3.17;;;;;;;8.69;100.00;95349.03;5016825;28;20530;-74
2022/11/04 01:55:12;;;;;;;;;;;;;;;8.73;100.00;95368.66;5020331;28;20405;-74
2022/11/04 01:57:44;;;;;;;5.83;3.00;;;;;;;8.69;100.00;95362.94;5001955;28;19952;-74
2022/11/04 02:00:11;;;;;;;5.23;3.07;;;;;;;8.64;100.00;95357.38;4987659;28;21827;-74
2022/11/04 02:02:47;;;;;;;5.83;3.07;;;;;;;8.63;100.00;95352.31;4986642;28;22432;-74
2022/11/04 02:05:13;;;;;;;6.13;3.03;;;;;;;8.58;100.00;95344.94;4990818;28;20029;-74
2022/11/04 02:07:39;;;;;;;9.13;3.63;;;;;;;8.60;100.00;95342.97;4989672;28;20099;-74
2022/11/04 02:10:06;;;;;;;6.60;3.73;;;;;;;8.59;100.00;95346.59;5003927;28;20042;-74
2022/11/04 02:12:50;;;;;;;8.57;3.37;;;;;;;8.61;100.00;95343.78;4986050;28;20107;-74
2022/11/04 02:15:21;;;;;;;;;;;;;;;8.63;100.00;95342.66;4990984;28;21379;-74
2022/11/04 02:17:50;;;;;;;5.87;3.40;;;;;;;8.62;100.00;95342.81;4989775;28;19956;-74
2022/11/04 02:20:25;;;;;;;8.97;4.27;;;;;;;8.60;100.00;95336.94;4988353;28;20020;-74
2022/11/04 02:23:05;;;;;;;6.23;3.40;;;;;;;8.63;100.00;95336.59;4988789;28;20052;-74
2022/11/04 02:25:45;;;;;;;6.17;3.40;;;;;;;8.63;100.00;95334.78;4989165;28;20613;-74
2022/11/04 02:28:33;;;;;;;6.73;3.53;;;;;;;8.64;100.00;95338.22;5008196;28;21408;-73
2022/11/04 02:31:30;;;;;;;6.20;3.33;;;;;;;8.68;100.00;95345.56;5015008;28;20498;-74
2022/11/04 02:34:06;;;;;;;6.63;3.20;;;;;;;8.66;100.00;95346.75;5019179;28;20910;-75
2022/11/04 02:36:42;;;;;;;7.20;3.80;;;;;;;8.68;100.00;95344.75;5014464;28;20049;-75
2022/11/04 02:39:20;;;;;;;6.23;3.17;;;;;;;8.65;100.00;95348.53;5014215;28;20034;-75
2022/11/04 02:41:57;;;;;;;5.43;2.70;;;;;;;8.64;100.00;95353.94;5016444;28;20450;-75
2022/11/04 02:44:25;;;;;;;5.77;2.10;;;;;;;8.56;100.00;95351.34;5018506;28;20025;-75
2022/11/04 02:47:23;;;;;;;6.70;2.90;;;;;;;8.62;100.00;95348.88;5019982;28;20034;-75
2022/11/04 02:49:54;;;;;;;4.33;2.63;;;;;;;8.62;100.00;95358.56;5022163;28;20045;-75
2022/11/04 02:52:38;;;;;;;7.00;3.03;;;;;;;8.58;100.00;95354.59;5016784;28;20038;-75
2022/11/04 02:55:09;;;;;;;5.80;3.05;;;;;;;8.53;100.00;95352.50;5016371;28;20032;-74
2022/11/04 02:57:38;;;;;;;4.07;2.17;;;;;;;8.55;100.00;95355.78;5018512;28;20060;-75
2022/11/04 03:00:10;;;;;;;4.03;2.10;;;;;;;8.50;100.00;95358.06;5019947;28;20063;-75
2022/11/04 03:02:35;;;;;;;5.00;2.07;;;;;;;8.47;100.00;95348.75;5022707;28;20061;-75
2022/11/04 03:05:04;;;;;;;3.83;1.50;;;;;;;8.39;100.00;95354.00;5018095;28;20052;-75
2022/11/04 03:07:34;;;;;;;4.73;1.57;;;;;;;8.38;100.00;95354.16;4989675;28;20037;-75
2022/11/04 03:10:14;;;;;;;3.30;1.47;;;;;;;8.41;100.00;95356.47;4981864;28;20041;-75
2022/11/04 03:12:48;;;;;;;3.47;2.20;;;;;;;8.43;100.00;95359.75;4981619;28;20033;-75
2022/11/04 03:15:23;;;;;;;3.40;1.33;;;;;;;8.43;100.00;95364.97;4981711;28;22027;-75
2022/11/04 03:17:59;;;;;;;2.60;1.10;;;;;;;8.34;100.00;95353.66;4976065;28;20497;-75
2022/11/04 03:20:27;;;;;;;2.60;1.23;;;;;;;8.31;100.00;95353.16;4982060;28;20037;-75
2022/11/04 03:22:58;;;;;;;3.07;1.20;;;;;;;8.29;100.00;95360.41;4980866;28;20042;-75
2022/11/04 03:25:29;;;;;;;2.77;1.27;;;;;;;8.24;100.00;95353.84;4982572;28;20978;-75
2022/11/04 03:28:11;;;;;;;4.00;1.37;;;;;;;8.23;100.00;95357.44;4992798;28;20044;-75
2022/11/04 03:30:47;;;;;;;3.27;1.20;;;;;;;8.22;100.00;95355.00;4982430;28;20534;-75
2022/11/04 03:33:23;;;;;;;4.97;1.20;;;;;;;8.19;100.00;95365.81;4980787;28;21430;-75
2022/11/04 03:35:49;;;;;;;2.77;1.33;;;;;;;8.20;100.00;95364.81;4995971;28;20064;-75
2022/11/04 03:38:15;;;;;;;2.57;1.20;;;;;;;8.12;100.00;95368.28;4996874;28;20108;-75
2022/11/04 03:40:41;;;;;;;2.10;0.97;;;;;;;8.10;100.00;95367.59;4990929;28;20037;-74
2022/11/04 03:43:15;;;;;;;2.47;1.33;;;;;;;8.07;100.00;95364.50;4993664;28;20021;-75
2022/11/04 03:45:42;;;;;;;3.23;1.30;;;;;;;8.06;100.00;95366.31;4994876;28;20168;-75
2022/11/04 03:48:08;;;;;;;2.70;1.17;;;;;;;8.04;100.00;95355.16;4994072;28;20033;-75
2022/11/04 03:50:43;;;;;;;2.50;0.90;;;;;;;8.01;100.00;95364.19;5007286;28;20220;-75
2022/11/04 03:53:11;;;;;;;2.97;1.27;;;;;;;8.04;100.00;95370.88;4993618;28;20026;-75
2022/11/04 03:56:08;;;;;;;2.87;1.57;;;;;;;7.98;100.00;95374.16;4994113;28;20480;-74
2022/11/04 03:58:50;;;;;;;2.70;0.93;;;;;;;7.95;100.00;95374.50;4993281;28;20152;-74
2022/11/04 04:01:22;;;;;;;2.57;1.07;;;;;;;8.04;100.00;95376.13;4992941;28;20028;-75
2022/11/04 04:04:14;;;;;;;2.73;1.20;;;;;;;7.94;100.00;95378.09;4991453;28;20104;-75
2022/11/04 04:06:42;;;;;;;1.47;1.10;;;;;;;8.02;100.00;95386.75;4995225;28;20052;-75
2022/11/04 04:09:22;;;;;;;2.57;1.00;;;;;;;7.91;100.00;95402.78;5018342;28;20042;-75
2022/11/04 04:11:53;;;;;;;2.43;1.00;;;;;;;7.89;100.00;95407.38;5020755;28;20032;-75
2022/11/04 04:14:41;;;;;;;2.20;1.03;;;;;;;7.92;100.00;95407.06;5021362;28;20044;-74
2022/11/04 04:17:14;;;;;;;2.37;0.83;;;;;;;7.85;100.00;95411.31;5017713;28;20025;-74
2022/11/04 04:19:50;;;;;;;2.33;1.27;;;;;;;7.83;100.00;95404.59;5022967;28;20109;-75
2022/11/04 04:22:23;;;;;;;3.50;1.10;;;;;;;7.86;100.00;95406.88;5013880;28;20029;-75
2022/11/04 04:27:39;;;;;;;2.23;1.10;;;;;;;7.84;100.00;95398.38;5018521;28;20033;-75
2022/11/04 04:30:08;;;;;;;1.70;0.90;;;;;;;7.77;100.00;95388.53;5022809;28;20358;-75
2022/11/04 04:32:38;;;;;;;4.73;0.80;;;;;;;7.78;100.00;95377.13;5022467;28;20096;-75
2022/11/04 04:37:54;;;;;;;8.63;4.80;;;;;;;7.77;100.00;95367.59;5016826;28;20040;-77
2022/11/04 04:46:00;;;;;;;2.30;0.80;;;;;;;7.72;100.00;95397.88;5018144;28;20110;-75
2022/11/04 04:48:25;;;;;;;2.77;0.70;;;;;;;7.73;100.00;95387.25;5033982;28;20399;-75
2022/11/04 04:50:55;;;;;;;3.00;0.80;;;;;;;7.77;100.00;95385.13;5036555;28;20079;-75
2022/11/04 04:53:22;;;;;;;8.40;3.03;;;;;;;7.69;100.00;95374.66;5018326;28;20033;-75
2022/11/04 04:55:48;;;;;;;4.53;2.63;;;;;;;7.61;100.00;95377.25;5036299;28;20061;-75
2022/11/04 04:58:13;;;;;;;5.17;0.80;;;;;;;7.62;100.00;95374.47;5028293;28;20483;-75
2022/11/04 05:00:39;;;;;;;4.90;1.17;;;;;;;7.60;100.00;95376.44;5019879;28;20029;-74
2022/11/04 05:03:05;;;;;;;3.47;0.77;;;;;;;7.55;100.00;95379.53;5006650;28;20690;-75
2022/11/04 05:05:31;;;;;;;3.23;1.00;;;;;;;7.55;100.00;95366.47;5015788;28;20036;-74
2022/11/04 05:08:04;;;;;;;3.40;1.23;;;;;;;7.50;100.00;95367.91;4995009;28;20151;-74
2022/11/04 05:10:30;;;;;;;4.77;0.90;;;;;;;7.42;100.00;95394.06;4989939;28;20329;-75
2022/11/04 05:15:40;;;;;;;2.87;1.00;;;;;;;7.37;100.00;95391.91;4988375;28;20040;-75
2022/11/04 05:18:05;;;;;;;4.43;0.80;;;;;;;7.39;100.00;95384.75;4987262;28;20021;-75
2022/11/04 05:20:33;;;;;;;4.17;1.13;;;;;;;7.29;100.00;95366.56;4989292;28;20132;-76
2022/11/04 05:22:59;;;;;;;2.47;0.93;;;;;;;7.27;100.00;95363.28;4988637;28;20041;-75
2022/11/04 05:25:24;;;;;;;4.37;0.83;;;;;;;7.31;100.00;95371.66;4988197;28;20030;-74
2022/11/04 05:27:50;;;;;;;4.53;1.37;;;;;;;7.32;100.00;95373.28;4989226;28;22366;-75
2022/11/04 05:30:16;;;;;;;3.30;1.33;;;;;;;7.36;100.00;95373.78;4989216;28;20029;-75
2022/11/04 05:32:41;;;;;;;5.23;1.27;;;;;;;7.41;100.00;95347.94;4991129;28;20065;-75
2022/11/04 05:35:07;;;;;;;3.90;1.20;;;;;;;7.30;100.00;95330.78;4990324;28;20667;-75
2022/11/04 05:37:33;;;;;;;2.13;1.03;;;;;;;7.26;100.00;95321.63;5010232;28;20045;-75
2022/11/04 05:39:58;;;;;;;5.00;0.73;;;;;;;7.31;100.00;95330.63;5019076;28;20022;-75
2022/11/04 05:42:24;;;;;;;3.80;1.10;;;;;;;7.22;100.00;95347.28;5019784;28;20498;-75
2022/11/04 05:44:50;;;;;;;4.70;1.03;;;;;;;7.22;100.00;95357.72;5024903;28;20123;-75
2022/11/04 05:47:15;;;;;;;3.40;1.40;;;;;;;7.17;100.00;95370.44;5019641;28;20029;-75
2022/11/04 05:49:41;;;;;;;4.90;1.30;;;;;;;7.18;100.00;95355.59;5015959;28;20542;-75
2022/11/04 05:52:07;;;;;;;7.07;1.17;;;;;;;7.12;100.00;95346.59;5020110;28;20033;-74
2022/11/04 05:54:33;;;;;;;3.80;0.90;;;;;;;7.09;100.00;95358.19;5019453;28;20045;-75
2022/11/04 05:56:58;;;;;;;4.30;0.93;;;;;;;7.13;100.00;95366.53;5020354;28;20032;-75
2022/11/04 05:59:24;;;;;;;4.50;1.10;;;;;;;7.08;100.00;95380.09;5018330;28;20048;-75
2022/11/04 06:01:49;;;;;;;2.60;0.97;;;;;;;7.11;100.00;95389.41;5017620;28;20042;-75
2022/11/04 06:04:17;;;;;;;4.60;1.97;;;;;;;7.11;100.00;95394.66;5025251;28;20033;-74
2022/11/04 06:06:44;;;;;;;2.57;0.97;;;;;;;7.09;100.00;95386.13;5029047;28;20128;-75
2022/11/04 06:09:09;;;;;;;5.13;1.40;;;;;;;7.13;100.00;95376.97;4988612;28;20025;-75
2022/11/04 06:11:37;;;;;;;5.77;3.00;;;;;;;7.06;100.00;95382.03;4983608;28;20498;-74
2022/11/04 06:14:03;;;;;;;7.10;3.37;;;;;;;7.08;100.00;95387.94;4988496;28;20461;-75
2022/11/04 06:16:29;;;;;;;7.37;3.23;;;;;;;7.16;100.00;95400.19;4988759;28;20036;-75
2022/11/04 06:18:54;;;;;;;7.70;4.53;;;;;;;7.07;100.00;95403.75;4987665;28;20041;-75
2022/11/04 06:21:29;;;;;;;6.33;3.53;;;;;;;7.13;100.00;95405.75;4990484;28;20037;-75
2022/11/04 06:23:56;;;;;;;6.40;2.77;;;;;;;7.12;100.00;95408.53;4988573;28;20040;-75
2022/11/04 06:26:26;;;;;;;9.50;2.97;;;;;;;7.05;100.00;95405.72;4988423;28;21369;-76
2022/11/04 06:28:52;;;;;;;8.80;4.13;;;;;;;7.07;100.00;95406.38;4989870;28;20037;-75
2022/11/04 06:31:19;;;;;;;9.33;3.70;;;;;;;7.01;100.00;95409.63;5005507;28;20038;-75
2022/11/04 06:33:45;;;;;;;8.67;3.70;;;;;;;7.02;100.00;95408.66;4991108;28;20052;-75
2022/11/04 06:36:14;;;;;;;5.30;2.20;;;;;;;6.98;100.00;95402.94;4990964;28;20198;-75
2022/11/04 06:38:41;;;;;;;5.47;1.70;;;;;;;7.01;100.00;95412.25;5014097;28;20109;-75
2022/11/04 06:41:10;;;;;;;8.07;2.10;;;;;;;6.96;100.00;95427.56;5029108;28;20029;-75
2022/11/04 06:43:36;;;;;;;6.37;2.00;;;;;;;6.91;100.00;95428.06;5021800;28;20026;-75
2022/11/04 06:46:02;;;;;;;7.67;1.90;;;;;;;6.93;100.00;95436.53;5019716;28;20675;-76
2022/11/04 06:48:32;;;;;;;6.20;2.40;;;;;;;6.97;100.00;95426.59;5017816;28;20152;-76
2022/11/04 06:50:59;;;;;;;3.93;1.40;;;;;;;6.98;100.00;95418.59;5024322;28;20057;-76
2022/11/04 06:53:25;;;;;;;4.80;1.60;;;;;;;6.96;100.00;95409.28;5019885;28;20030;-76
2022/11/04 06:55:52;;;;;;;3.77;1.60;;;;;;;7.00;100.00;95413.22;5016627;28;20042;-75
2022/11/04 06:58:18;;;;;;;13.27;6.13;;;;;;;7.04;100.00;95404.06;5025785;28;20034;-77
2022/11/04 07:00:48;;;;;;;10.23;5.33;;;;;;;7.09;100.00;95393.97;5018812;28;20208;-75
2022/11/04 07:03:14;;;;;;;11.00;3.97;;;;;;;7.12;100.00;95380.59;5028679;28;20037;-76
2022/11/04 07:05:41;;;;;;;6.47;2.27;;;;;;;7.09;100.00;95383.50;5021412;28;20026;-75
2022/11/04 07:08:06;;;;;;;12.50;6.47;;;;;;;7.04;100.00;95370.09;4981485;28;20045;-76
2022/11/04 07:10:32;;;;;;;17.80;9.77;;;;;;;6.97;100.00;95366.47;4981657;28;20045;-77
2022/11/04 07:12:58;;;;;;;7.77;3.53;;;;;;;7.07;100.00;95354.91;4981841;28;20029;-76
2022/11/04 07:15:24;;;;;;;5.27;1.73;;;;;;;7.11;100.00;95359.81;4981203;28;21573;-76
2022/11/04 07:17:49;;;;;;;7.20;2.17;;;;;;;7.12;100.00;95362.28;4983380;28;20067;-76
2022/11/04 07:20:15;;;;;;;5.37;1.40;;;;;;;7.16;100.00;95363.59;4985548;28;20041;-77
2022/11/04 07:22:41;;;;;;;5.27;1.20;;;;;;;7.20;100.00;95364.91;4988047;28;20120;-76
2022/11/04 07:25:07;;;;;;;3.60;1.57;;;;;;;7.24;100.00;95355.78;4985805;28;20083;-76
2022/11/04 07:27:33;;;;;;;3.50;1.10;;;;;;;7.30;100.00;95360.34;4982569;28;20033;-77
2022/11/04 07:29:58;;;;;;;6.07;1.30;;;;;;;7.28;100.00;95375.41;4985044;28;20123;-76
2022/11/04 07:32:24;;;;;;;4.67;1.57;;;;;;;7.33;100.00;95374.91;4980621;28;20081;-75
2022/11/04 07:34:50;;;;;;;6.30;1.40;;;;;;;7.39;100.00;95368.22;4983113;28;20030;-75
2022/11/04 07:37:15;;;;;;;3.47;1.17;;;;;;;7.37;100.00;95365.75;4990240;28;20143;-74
2022/11/04 07:39:41;;;;;;;4.13;1.73;;;;;;;7.31;100.00;95375.09;5012635;28;20478;-75
2022/11/04 07:42:07;;;;;;;4.83;1.43;;;;;;;7.25;100.00;95383.56;5018438;28;20029;-75
2022/11/04 07:44:34;;;;;;;6.93;2.20;;;;;;;7.26;100.00;95392.22;5018000;28;20508;-74
2022/11/04 07:47:00;;;;;;;9.67;3.40;;;;;;;7.14;100.00;95386.47;5003719;28;20025;-75
2022/11/04 07:49:26;;;;;;;5.40;2.93;;;;;;;7.24;100.00;95384.56;5017627;28;21010;-74
2022/11/04 07:51:51;;;;;;;5.27;1.50;;;;;;;7.30;100.00;95383.06;5018399;28;20160;-75
2022/11/04 07:54:17;;;;;;;7.43;3.87;;;;;;;7.31;100.00;95380.31;5015203;28;20047;-75
2022/11/04 07:56:43;;;;;;;4.53;1.90;;;;;;;7.36;100.00;95381.63;5016664;28;20044;-74
2022/11/04 07:59:09;;;;;;;4.07;1.93;;;;;;;7.41;100.00;95381.94;5015654;28;20033;-75
2022/11/04 08:01:35;;;;;;;4.07;1.83;;;;;;;7.41;100.00;95398.50;5014830;28;20044;-75
2022/11/04 08:04:01;;;;;;;3.83;1.60;;;;;;;7.50;100.00;95412.38;5019270;28;20021;-75
2022/11/04 08:06:29;;;;;;;4.87;2.30;;;;;;;7.46;100.00;95417.13;5018371;28;20029;-75
2022/11/04 08:08:56;;;;;;;3.73;1.90;;;;;;;7.37;100.00;95420.69;4996891;28;20064;-74
2022/11/04 08:11:24;;;;;;;7.23;3.13;;;;;;;7.34;100.00;95421.00;4990744;28;20041;-74
2022/11/04 08:13:50;;;;;;;6.17;2.13;;;;;;;7.39;100.00;95428.41;4991320;28;20153;-75
2022/11/04 08:16:18;;;;;;;8.83;2.27;;;;;;;7.52;100.00;95420.91;4987137;28;20049;-75
2022/11/04 08:18:45;;;;;;;4.43;2.00;;;;;;;7.60;100.00;95418.28;4988491;28;20035;-75
2022/11/04 08:21:12;;;;;;;5.03;2.30;;;;;;;7.61;100.00;95421.72;4991023;28;20029;-75
2022/11/04 08:23:38;;;;;;;4.67;2.13;;;;;;;7.64;100.00;95418.78;4974569;28;20033;-74
2022/11/04 08:26:12;;;;;;;6.47;2.50;;;;;;;7.74;100.00;95420.28;5005171;28;20032;-75
2022/11/04 08:28:38;;;;;;;6.50;2.40;;;;;;;7.78;100.00;95410.31;5020462;28;20029;-76
2022/11/04 08:31:07;;;;;;;8.90;3.77;;;;;;;7.80;100.00;95410.97;5029108;28;20497;-74
2022/11/04 08:33:34;;;;;;;4.37;2.30;;;;;;;7.78;100.00;95416.38;5028955;28;20069;-74
2022/11/04 08:36:08;;;;;;;8.97;3.10;;;;;;;7.85;100.00;95406.06;5030520;28;20025;-74
2022/11/04 08:38:34;;;;;;;;;;;;;;;7.79;100.00;95410.16;5026230;28;20068;-75
2022/11/04 08:41:02;;;;;;;6.10;2.53;;;;;;;7.77;100.00;95411.28;5035740;28;19948;-74
2022/11/04 08:43:29;;;;;;;7.27;2.17;;;;;;;7.79;100.00;95412.75;5028674;28;20458;-75
2022/11/04 08:45:55;;;;;;;14.37;5.40;;;;;;;7.72;100.00;95417.00;5024374;28;20025;-74
2022/11/04 08:48:21;;;;;;;30.07;13.43;;;;;;;7.69;100.00;95422.56;5026747;28;20065;-75
2022/11/04 08:50:49;;;;;;;27.30;14.27;;;;;;;7.69;100.00;95414.72;5009659;28;20100;-74
2022/11/04 08:53:15;;;;;;;29.17;13.17;;;;;;;7.78;100.00;95405.91;5027310;28;20398;-74
2022/11/04 08:55:40;;;;;;;12.73;6.30;;;;;;;7.80;100.00;95401.31;5026932;28;20044;-75
2022/11/04 08:58:06;;;;;;;6.00;3.30;;;;;;;7.98;100.00;95402.94;5023708;28;20037;-75
2022/11/04 09:00:32;;;;;;;7.80;3.17;;;;;;;7.87;100.00;95409.34;5038784;28;20624;-75
2022/11/04 09:02:58;;;;;;;10.50;4.73;;;;;;;7.97;100.00;95410.00;5027716;28;20041;-75
2022/11/04 09:05:24;;;;;;;8.53;3.40;;;;;;;8.09;100.00;95415.72;5028069;28;20033;-75
2022/11/04 09:07:50;;;;;;;7.23;3.20;;;;;;;8.16;100.00;95414.09;5033419;28;20441;-75
2022/11/04 09:10:16;;;;;;;7.87;3.63;;;;;;;8.23;100.00;95416.88;5026872;28;20040;-76
2022/11/04 09:12:42;;;;;;;4.57;2.10;;;;;;;8.26;100.00;95411.31;5024290;28;20021;-75
2022/11/04 09:15:09;;;;;;;5.37;2.67;;;;;;;8.29;100.00;95418.03;5026596;28;20037;-75
2022/11/04 09:17:34;;;;;;;8.03;2.70;;;;;;;8.35;100.00;95422.56;5026748;28;20417;-75
2022/11/04 09:20:00;;;;;;;6.17;3.17;;;;;;;8.45;100.00;95426.72;5034059;28;20029;-74
2022/11/04 09:22:26;;;;;;;6.37;2.60;;;;;;;8.40;100.00;95430.81;5028593;28;20083;-74
2022/11/04 09:24:52;;;;;;;7.13;2.13;;;;;;;8.50;100.00;95428.81;5022873;28;20117;-75
2022/11/04 09:27:18;;;;;;;7.87;2.60;;;;;;;8.63;100.00;95426.50;5026233;28;20037;-75
2022/11/04 09:29:45;;;;;;;6.80;3.37;;;;;;;8.74;100.00;95423.53;5033834;28;20048;-75
2022/11/04 09:32:10;;;;;;;6.87;2.83;;;;;;;8.72;100.00;95420.28;5026889;28;20033;-75
2022/11/04 09:34:36;;;;;;;7.13;2.53;;;;;;;8.77;100.00;95414.53;5026572;28;20044;-74
2022/11/04 09:37:02;;;;;;;4.20;2.10;;;;;;;8.80;100.00;95410.75;5025198;28;20072;-75
2022/11/04 09:39:27;;;;;;;8.23;1.80;;;;;;;8.88;100.00;95401.03;5027517;28;20033;-75
2022/11/04 09:42:24;;;;;;;3.47;1.53;;;;;;;9.04;100.00;95408.03;5027034;28;20045;-75
2022/11/04 09:44:53;;;;;;;6.70;2.20;;;;;;;9.08;100.00;95398.84;5026874;28;20061;-75
2022/11/04 09:47:21;;;;;;;3.97;1.70;;;;;;;9.09;100.00;95392.63;5025999;28;20037;-75
2022/11/04 09:49:49;;;;;;;4.50;1.60;;;;;;;9.29;100.00;95386.94;5025858;28;20026;-75
2022/11/04 09:52:29;;;;;;;3.13;1.70;;;;;;;9.25;100.00;95388.28;5008811;28;20506;-75
2022/11/04 09:54:57;;;;;;;2.80;1.27;;;;;;;9.18;100.00;95381.09;5042279;28;20847;-75
2022/11/04 09:57:23;;;;;;;5.27;1.37;;;;;;;9.36;100.00;95374.78;5019781;28;20076;-74
2022/11/04 09:59:51;;;;;;;4.83;1.50;;;;;;;9.49;100.00;95367.16;5026534;28;20237;-75
2022/11/04 10:02:32;;;;;;;7.87;2.73;;;;;;;9.58;100.00;95362.66;5020414;28;20025;-75
2022/11/04 10:05:30;;;;;;;3.73;1.77;;;;;;;9.52;100.00;95358.91;5025854;28;20028;-74
2022/11/04 10:08:25;;;;;;;4.70;1.10;;;;;;;9.58;100.00;95362.66;5026323;28;20033;-75
2022/11/04 10:10:59;;;;;;;3.30;1.03;;;;;;;9.79;100.00;95360.22;5034634;28;20037;-75
2022/11/04 10:13:45;;;;;;;4.37;1.17;;;;;;;9.87;100.00;95346.22;5025407;28;20071;-75
2022/11/04 10:16:26;;;;;;;2.60;1.00;;;;;;;9.84;100.00;95339.50;5025726;28;20033;-75
2022/11/04 10:19:15;;;;;;;10.83;3.47;;;;;;;10.01;100.00;95342.81;5041743;28;20099;-75
2022/11/04 10:22:03;;;;;;;4.33;1.00;;;;;;;9.83;100.00;95344.94;5027036;28;20033;-75
2022/11/04 10:24:41;;;;;;;2.47;0.80;;;;;;;9.92;100.00;95343.84;5025208;28;20116;-74
2022/11/04 10:27:15;;;;;;;2.50;0.70;;;;;;;10.03;100.00;95340.03;5019959;28;20037;-77
2022/11/04 10:29:50;;;;;;;2.60;0.97;;;;;;;10.08;100.00;95332.41;5025262;28;20103;-77
2022/11/04 10:32:40;;;;;;;1.47;0.63;;;;;;;10.08;100.00;95338.47;5025731;28;20057;-75
2022/11/04 10:35:14;;;;;;;2.90;1.00;;;;;;;9.92;100.00;95335.97;5027544;28;20034;-75
2022/11/04 10:37:39;;;;;;;3.90;0.60;;;;;;;9.78;100.00;95336.75;5024630;28;20037;-75
2022/11/04 10:40:18;;;;;;;3.47;0.80;;;;;;;9.95;100.00;95342.69;5024756;28;20084;-74
2022/11/04 10:42:43;;;;;;;3.23;0.87;;;;;;;9.89;100.00;95338.97;5026267;28;20659;-74
2022/11/04 10:45:11;;;;;;;4.43;1.07;;;;;;;9.95;100.00;95338.25;5024806;28;20017;-74
2022/11/04 10:48:14;;;;;;;1.97;0.90;;;;;;;9.94;100.00;95331.38;5026283;28;20041;-75
2022/11/04 10:50:54;;;;;;;4.67;1.97;;;;;;;10.11;100.00;95335.50;5022446;28;20042;-74
2022/11/04 10:53:24;;;;;;;5.73;1.30;;;;;;;10.00;100.00;95329.88;5031029;28;20037;-75
2022/11/04 10:55:53;;;;;;;3.80;1.03;;;;;;;9.91;100.00;95334.34;5031211;28;20048;-74
2022/11/04 10:58:28;;;;;;;3.77;1.03;;;;;;;10.07;100.00;95326.34;5034114;28;20429;-75
2022/11/04 11:00:56;;;;;;;6.17;1.17;;;;;;;10.00;100.00;95324.63;5024068;28;20478;-75
2022/11/04 11:03:33;;;;;;;4.13;1.43;;;;;;;10.20;100.00;95317.03;5029857;28;20045;-75
2022/11/04 11:06:23;;;;;;;2.87;0.60;;;;;;;10.25;100.00;95314.69;5029602;28;20391;-74
2022/11/04 11:08:49;;;;;;;6.53;2.13;;;;;;;10.47;100.00;95310.38;5029336;28;20041;-77
2022/11/04 11:11:30;;;;;;;7.73;3.17;;;;;;;10.72;100.00;95303.03;5030490;28;20039;-76
2022/11/04 11:13:56;;;;;;;4.50;1.43;;;;;;;10.62;100.00;95298.03;5029866;28;20061;-77
2022/11/04 11:16:26;;;;;;;4.90;1.00;;;;;;;10.84;100.00;95291.03;5030986;28;20457;-76
2022/11/04 11:19:30;;;;;;;1.93;0.77;;;;;;;10.71;100.00;95290.88;5027056;28;20032;-77
2022/11/04 11:21:57;;;;;;;3.60;0.93;;;;;;;11.02;100.00;95277.50;5028103;28;20502;-78
2022/11/04 11:24:29;;;;;;;3.20;1.03;;;;;;;11.12;100.00;95267.47;5023936;28;20042;-77
2022/11/04 11:27:11;;;;;;;3.85;1.00;;;;;;;11.51;100.00;95274.97;5021679;28;20039;-76
2022/11/04 11:29:41;;;;;;;3.77;0.90;;;;;;;11.63;100.00;95264.72;5028809;28;20072;-76
2022/11/04 11:32:31;;;;;;;7.47;2.17;;;;;;;11.85;100.00;95262.94;5027369;28;20033;-76
2022/11/04 11:35:00;;;;;;;3.80;1.37;;;;;;;12.15;100.00;95270.66;5030299;28;20029;-76
2022/11/04 11:37:31;;;;;;;5.60;1.13;;;;;;;12.31;100.00;95270.34;5028251;28;20678;-78
2022/11/04 11:39:57;;;;;;;3.23;0.90;;;;;;;12.11;100.00;95267.59;5026331;28;20029;-78
2022/11/04 11:42:24;;;;;;;5.00;1.50;;;;;;;12.13;100.00;95264.75;5029691;28;20387;-78
2022/11/04 11:44:58;;;;;;;2.13;0.90;;;;;;;12.21;100.00;95257.50;5030669;28;20488;-77
2022/11/04 11:47:24;;;;;;;3.40;0.80;;;;;;;11.96;100.00;95254.50;5030466;28;20065;-78
2022/11/04 11:50:19;;;;;;;4.83;1.10;;;;;;;11.66;100.00;95255.63;5035515;28;20720;-78
2022/11/04 11:52:51;;;;;;;3.37;1.00;;;;;;;11.98;100.00;95259.59;5036980;28;20057;-78
2022/11/04 11:55:35;;;;;;;2.00;0.90;;;;;;;11.89;100.00;95258.09;5028195;28;20030;-77
2022/11/04 11:58:31;;;;;;;7.50;3.27;;;;;;;11.72;100.00;95260.16;5028552;28;20033;-78
2022/11/04 12:01:12;;;;;;;19.30;9.97;;;;;;;12.00;100.00;95263.66;5018833;28;20029;-77
2022/11/04 12:03:42;;;;;;;6.47;2.33;;;;;;;11.66;100.00;95266.97;5028265;28;20466;-77
2022/11/04 12:06:30;;;;;;;2.67;1.27;;;;;;;11.70;100.00;95270.06;5025802;28;20009;-77
2022/11/04 12:09:16;;;;;;;4.03;0.90;;;;;;;11.70;100.00;95260.34;5027523;28;20041;-77
2022/11/04 12:12:05;;;;;;;2.77;1.13;;;;;;;11.50;100.00;95268.09;5022579;28;20116;-78
2022/11/04 12:14:49;;;;;;;4.37;0.90;;;;;;;11.79;100.00;95272.38;5036113;28;20129;-77
2022/11/04 12:17:30;;;;;;;4.27;0.90;;;;;;;11.77;100.00;95284.13;5035569;28;20025;-78